Time;durP1;ratioP1;P1;durP2;ratioP2;P2;SDS_P1;SDS_P2;PMS_P1;PMS_P2;Temp;Humidity;BMP_temperature;BMP_pressure;BME280_temperature;BME280_humidity;BME280_pressure;Samples;Min_cycle;Max_cycle;Signal;HPM_P1;HPM_P2
2021/09/02 00:00:43;;;;;;;;;10.00;9.00;;;;;18.40;57.75;99043.19;6137201;22;102421;-82
2021/09/02 00:03:10;;;;;;;;;8.33;7.33;;;;;18.39;58.36;99042.34;6129397;22;104099;-82
2021/09/02 00:05:38;;;;;;;;;10.67;10.00;;;;;18.38;58.03;99051.63;6132907;22;102558;-81
2021/09/02 00:08:09;;;;;;;;;3.67;2.00;;;;;18.37;57.92;99052.69;6142455;22;102338;-82
2021/09/02 00:10:42;;;;;;;;;10.00;10.00;;;;;18.37;57.49;99057.38;6146981;22;102384;-82
2021/09/02 00:13:18;;;;;;;;;11.67;10.00;;;;;18.34;58.06;99047.72;6142531;22;103319;-82
2021/09/02 00:15:51;;;;;;;;;9.00;9.00;;;;;18.35;57.40;99057.59;6118477;22;103259;-82
2021/09/02 00:18:26;;;;;;;;;13.33;11.33;;;;;18.33;57.92;99054.25;6140270;22;102598;-81
2021/09/02 00:21:00;;;;;;;;;10.00;9.33;;;;;18.32;57.58;99060.81;6140655;22;102674;-82
2021/09/02 00:23:34;;;;;;;;;11.33;10.00;;;;;18.32;57.23;99071.78;6141723;22;103998;-82
2021/09/02 00:26:10;;;;;;;;;11.33;10.33;;;;;18.30;57.62;99065.69;6143118;22;102374;-82
2021/09/02 00:28:44;;;;;;;;;13.00;10.67;;;;;18.31;57.03;99066.53;6137923;22;102605;-82
2021/09/02 00:31:21;;;;;;;;;11.00;10.00;;;;;18.28;57.28;99056.91;6145599;22;102178;-82
2021/09/02 00:33:54;;;;;;;;;9.00;9.00;;;;;18.27;57.39;99058.81;6135805;22;108512;-82
2021/09/02 00:36:29;;;;;;;;;9.00;9.00;;;;;18.28;57.47;99059.66;6135739;22;102194;-82
2021/09/02 00:39:00;;;;;;;;;9.00;8.00;;;;;18.27;57.54;99060.72;6131729;22;102390;-82
2021/09/02 00:41:33;;;;;;;;;11.67;10.00;;;;;18.25;57.37;99058.19;6136109;22;102143;-82
2021/09/02 00:44:04;;;;;;;;;11.00;10.00;;;;;18.26;56.79;99064.50;6142502;22;103708;-82
2021/09/02 00:46:32;;;;;;;;;10.33;9.00;;;;;18.24;57.13;99061.16;6141024;22;101880;-82
2021/09/02 00:48:59;;;;;;;;;9.00;8.00;;;;;18.22;57.47;99063.31;6134704;22;102177;-82
2021/09/02 00:51:26;;;;;;;;;12.00;11.00;;;;;18.20;56.83;99071.78;6147498;22;111928;-82
2021/09/02 00:53:55;;;;;;;;;10.67;9.00;;;;;18.21;57.02;99072.59;6138403;22;108703;-82
2021/09/02 00:56:28;;;;;;;;;9.00;9.00;;;;;18.21;56.79;99075.34;6136225;22;102330;-82
2021/09/02 00:58:55;;;;;;;;;9.33;8.33;;;;;18.19;56.79;99069.28;6134359;22;102353;-82
2021/09/02 01:01:22;;;;;;;;;11.00;10.00;;;;;18.18;57.21;99073.09;6132224;22;102576;-82
2021/09/02 01:03:50;;;;;;;;;11.00;9.67;;;;;18.17;56.18;99065.94;6086375;22;104136;-82
2021/09/02 01:06:17;;;;;;;;;11.00;10.67;;;;;18.16;56.84;99070.59;6096134;22;102174;-82
2021/09/02 01:08:46;;;;;;;;;11.67;11.00;;;;;18.15;56.74;99068.06;6071351;22;102220;-82
2021/09/02 01:11:17;;;;;;;;;11.67;10.00;;;;;18.16;57.10;99067.84;6121451;22;102578;-82
2021/09/02 01:13:51;;;;;;;;;9.00;8.00;;;;;18.13;56.38;99075.72;6106366;22;103141;-82
2021/09/02 01:16:25;;;;;;;;;5.33;5.00;;;;;18.14;56.04;99072.75;6125783;22;102186;-82
2021/09/02 01:18:59;;;;;;;;;11.67;10.00;;;;;18.12;56.03;99071.31;6122580;22;102229;-81
2021/09/02 01:21:34;;;;;;;;;9.67;8.33;;;;;18.12;56.82;99069.41;6129286;22;102164;-82
2021/09/02 01:24:10;;;;;;;;;10.00;10.00;;;;;18.11;56.57;99061.41;6131628;22;104930;-82
2021/09/02 01:26:43;;;;;;;;;9.67;7.00;;;;;18.10;55.82;99065.25;6130265;22;103783;-82
2021/09/02 01:29:27;;;;;;;;;10.33;9.00;;;;;18.10;56.56;99060.56;6134480;22;102566;-82
2021/09/02 01:32:01;;;;;;;;;9.00;8.33;;;;;18.11;56.69;99053.22;6108756;22;102377;-82
2021/09/02 01:34:34;;;;;;;;;11.00;11.00;;;;;18.08;56.42;99057.25;6134306;22;108401;-82
2021/09/02 01:37:07;;;;;;;;;9.00;9.00;;;;;18.07;56.03;99055.59;6139055;22;102064;-82
2021/09/02 01:39:40;;;;;;;;;10.00;9.67;;;;;18.06;55.93;99053.09;6136531;22;102528;-82
2021/09/02 01:42:14;;;;;;;;;11.00;9.33;;;;;18.05;56.52;99051.44;6135254;22;102166;-82
2021/09/02 01:44:49;;;;;;;;;10.67;10.00;;;;;18.05;55.63;99045.97;6132483;22;103049;-82
2021/09/02 01:47:30;;;;;;;;;11.00;10.00;;;;;18.04;56.28;99049.78;6113537;22;102385;-82
2021/09/02 01:50:09;;;;;;;;;9.67;9.00;;;;;18.04;55.90;99049.78;6143982;22;103026;-82
2021/09/02 01:52:37;;;;;;;;;10.00;9.67;;;;;18.03;55.86;99045.34;6143315;22;102098;-82
2021/09/02 01:55:06;;;;;;;;;10.33;10.00;;;;;18.02;56.35;99051.91;6141475;22;104123;-82
2021/09/02 01:57:33;;;;;;;;;9.67;9.00;;;;;18.01;55.47;99058.47;6111949;22;102288;-82
2021/09/02 02:00:00;;;;;;;;;12.67;10.00;;;;;18.00;56.09;99045.84;6139073;22;102295;-82
2021/09/02 02:02:27;;;;;;;;;10.00;8.33;;;;;17.99;55.38;99046.91;6109612;22;102272;-82
2021/09/02 02:04:54;;;;;;;;;9.00;8.00;;;;;17.98;55.90;99050.72;6136569;22;104536;-82
2021/09/02 02:07:22;;;;;;;;;11.00;10.00;;;;;17.97;55.95;99041.66;6146111;22;102578;-82
2021/09/02 02:09:49;;;;;;;;;10.00;8.33;;;;;17.95;56.01;99046.56;6138853;22;102572;-82
2021/09/02 02:12:16;;;;;;;;;11.00;10.00;;;;;17.95;55.54;99045.72;6147217;22;102405;-82
2021/09/02 02:14:43;;;;;;;;;8.00;8.00;;;;;17.93;55.78;99054.16;6140188;22;104093;-82
2021/09/02 02:17:10;;;;;;;;;9.00;8.67;;;;;17.92;55.73;99060.69;6119083;22;106582;-82
2021/09/02 02:19:37;;;;;;;;;10.33;9.33;;;;;17.91;55.47;99056.31;6141224;22;102066;-82
2021/09/02 02:22:05;;;;;;;;;7.67;7.67;;;;;17.93;55.96;99053.31;6142160;22;102088;-82
2021/09/02 02:24:32;;;;;;;;;9.00;8.00;;;;;17.90;55.14;99049.16;6142717;22;103986;-82
2021/09/02 02:26:59;;;;;;;;;9.00;8.33;;;;;17.90;55.68;99048.34;6148041;22;102218;-82
2021/09/02 02:29:26;;;;;;;;;11.67;10.00;;;;;17.89;55.23;99046.66;6117433;22;102802;-82
2021/09/02 02:31:53;;;;;;;;;11.67;10.00;;;;;17.89;55.39;99046.66;6139599;22;102238;-82
2021/09/02 02:34:21;;;;;;;;;14.33;9.00;;;;;17.88;55.03;99037.63;6141748;22;104055;-82
2021/09/02 02:36:48;;;;;;;;;11.00;10.00;;;;;17.88;55.58;99043.09;6142097;22;102342;-82
2021/09/02 02:39:15;;;;;;;;;9.67;9.67;;;;;17.85;55.70;99038.09;6139654;22;102370;-82
2021/09/02 02:41:42;;;;;;;;;10.00;9.00;;;;;17.84;55.20;99048.22;6141482;22;102821;-82
2021/09/02 02:44:09;;;;;;;;;8.00;8.00;;;;;17.84;54.98;99040.00;6140117;22;104229;-82
2021/09/02 02:46:36;;;;;;;;;9.33;8.00;;;;;17.84;55.51;99039.16;6133116;22;102541;-82
2021/09/02 02:49:04;;;;;;;;;10.00;9.33;;;;;17.83;55.89;99043.00;6135633;22;102442;-82
2021/09/02 02:51:31;;;;;;;;;8.00;8.00;;;;;17.84;55.84;99040.00;6132713;22;102297;-82
2021/09/02 02:53:58;;;;;;;;;8.33;7.67;;;;;17.84;55.02;99039.16;6133599;22;108373;-82
2021/09/02 02:56:25;;;;;;;;;11.00;10.00;;;;;17.83;55.50;99041.06;6138461;22;102086;-82
2021/09/02 02:58:52;;;;;;;;;8.00;8.00;;;;;17.83;54.81;99027.38;6131744;22;102353;-82
2021/09/02 03:01:19;;;;;;;;;10.00;8.67;;;;;17.80;55.24;99038.81;6111902;22;102594;-82
2021/09/02 03:03:47;;;;;;;;;7.33;7.33;;;;;17.81;55.61;99051.44;6131164;22;105047;-82
2021/09/02 03:06:14;;;;;;;;;8.00;7.33;;;;;17.81;54.78;99040.47;6135034;22;102737;-82
2021/09/02 03:08:41;;;;;;;;;7.33;7.33;;;;;17.79;55.58;99049.97;6135230;22;102652;-82
2021/09/02 03:11:12;;;;;;;;;9.00;8.00;;;;;17.79;55.49;99053.56;6138905;22;102134;-82
2021/09/02 03:13:40;;;;;;;;;12.67;9.00;;;;;17.78;55.06;99057.38;6130572;22;103691;-82
2021/09/02 03:16:08;;;;;;;;;8.67;8.00;;;;;17.79;55.23;99049.97;6135683;22;102076;-82
2021/09/02 03:18:35;;;;;;;;;10.00;8.00;;;;;17.77;55.39;99050.25;6133148;22;102400;-82
2021/09/02 03:21:02;;;;;;;;;9.33;8.00;;;;;17.76;55.09;99051.31;6106187;22;102554;-82
2021/09/02 03:23:29;;;;;;;;;8.00;8.00;;;;;17.76;54.91;99059.50;6141802;22;109823;-82
2021/09/02 03:25:56;;;;;;;;;8.00;7.00;;;;;17.75;55.55;99057.00;6135672;22;102543;-81
2021/09/02 03:28:23;;;;;;;;;8.67;8.33;;;;;17.74;55.14;99061.63;6129002;22;102008;-82
2021/09/02 03:30:51;;;;;;;;;9.00;7.33;;;;;17.74;54.77;99069.84;6132592;22;102111;-83
2021/09/02 03:33:18;;;;;;;;;8.33;8.33;;;;;17.75;55.37;99076.97;6143049;22;104601;-83
2021/09/02 03:35:45;;;;;;;;;9.33;7.67;;;;;17.75;55.27;99074.25;6126687;22;102420;-83
2021/09/02 03:38:12;;;;;;;;;6.00;5.00;;;;;17.74;55.46;99069.84;6142198;22;102590;-83
2021/09/02 03:40:39;;;;;;;;;8.00;6.33;;;;;17.74;54.70;99067.09;6139575;22;102146;-83
2021/09/02 03:43:07;;;;;;;;;8.33;7.33;;;;;17.73;54.78;99076.41;6135089;22;104129;-83
2021/09/02 03:45:34;;;;;;;;;9.00;8.00;;;;;17.73;55.21;99075.56;6126900;22;102512;-82
2021/09/02 03:48:05;;;;;;;;;7.00;7.00;;;;;17.71;55.34;99080.41;6139904;22;102490;-84
2021/09/02 03:50:32;;;;;;;;;8.00;8.00;;;;;17.70;54.89;99081.47;6140239;22;102517;-83
2021/09/02 03:53:00;;;;;;;;;10.00;9.00;;;;;17.69;54.62;99086.16;6134473;22;108897;-84
2021/09/02 03:55:33;;;;;;;;;7.00;7.00;;;;;17.70;54.75;99082.31;6133404;22;102527;-84
2021/09/02 03:58:01;;;;;;;;;8.00;7.33;;;;;17.70;54.91;99086.94;6111796;22;102499;-84
2021/09/02 04:00:28;;;;;;;;;6.00;6.00;;;;;17.70;55.12;99085.06;6139015;22;102490;-84
2021/09/02 04:02:55;;;;;;;;;6.00;6.00;;;;;17.69;55.34;99086.16;6139637;22;103990;-84
2021/09/02 04:05:23;;;;;;;;;6.67;6.67;;;;;17.69;55.09;99086.16;6136255;22;102320;-83
2021/09/02 04:07:50;;;;;;;;;6.33;6.33;;;;;17.66;54.82;99075.66;6140513;22;102150;-83
2021/09/02 04:10:17;;;;;;;;;8.00;7.00;;;;;17.67;55.33;99080.06;6134281;22;102544;-83
2021/09/02 04:12:44;;;;;;;;;6.00;6.00;;;;;17.68;54.67;99095.41;6137061;22;104379;-83
2021/09/02 04:15:11;;;;;;;;;6.33;6.33;;;;;17.69;54.82;99085.31;6124946;22;102422;-83
2021/09/02 04:17:38;;;;;;;;;6.00;5.00;;;;;17.68;54.83;99094.56;6132806;22;105000;-83
2021/09/02 04:20:06;;;;;;;;;8.67;8.00;;;;;17.67;55.10;99098.38;6137057;22;102530;-83
2021/09/02 04:22:34;;;;;;;;;8.33;7.33;;;;;17.66;55.35;99094.81;6120590;22;104482;-84
2021/09/02 04:25:01;;;;;;;;;6.67;6.00;;;;;17.65;55.53;99093.13;6123391;22;102342;-84
2021/09/02 04:27:29;;;;;;;;;8.00;6.67;;;;;17.67;55.42;99095.63;6129558;22;102419;-84
2021/09/02 04:29:57;;;;;;;;;10.00;7.00;;;;;17.68;55.57;99091.84;6136980;22;102541;-84
2021/09/02 04:32:24;;;;;;;;;7.00;6.33;;;;;17.67;55.24;99092.91;6133781;22;104235;-84
2021/09/02 04:34:51;;;;;;;;;6.67;6.00;;;;;17.65;54.38;99100.53;6130347;22;102375;-83
2021/09/02 04:37:18;;;;;;;;;6.00;6.00;;;;;17.62;54.48;99101.81;6132924;22;102245;-83
2021/09/02 04:39:45;;;;;;;;;10.00;8.00;;;;;17.62;55.34;99104.53;6136588;22;102520;-83
2021/09/02 04:42:12;;;;;;;;;7.00;6.33;;;;;17.62;55.40;99107.28;6135817;22;103909;-83
2021/09/02 04:44:39;;;;;;;;;5.33;5.33;;;;;17.61;54.87;99107.50;6129366;22;102331;-83
2021/09/02 04:47:07;;;;;;;;;5.67;5.00;;;;;17.59;54.74;99107.75;6137309;22;102454;-83
2021/09/02 04:49:34;;;;;;;;;7.67;7.67;;;;;17.60;54.54;99111.31;6145105;22;102464;-84
2021/09/02 04:52:01;;;;;;;;;7.67;7.00;;;;;17.60;54.62;99122.25;6135973;22;108866;-84
2021/09/02 04:54:28;;;;;;;;;7.67;7.00;;;;;17.61;54.84;99121.19;6134454;22;102169;-83
2021/09/02 04:56:55;;;;;;;;;7.00;6.00;;;;;17.60;55.29;99131.31;6134272;22;102594;-84
2021/09/02 04:59:23;;;;;;;;;6.00;6.00;;;;;17.62;54.93;99122.84;6137555;22;102718;-84
2021/09/02 05:01:50;;;;;;;;;5.33;5.33;;;;;17.63;55.04;99122.63;6131424;22;104594;-84
2021/09/02 05:04:18;;;;;;;;;8.00;6.00;;;;;17.63;54.30;99135.47;6124035;22;102422;-83
2021/09/02 05:06:45;;;;;;;;;7.00;5.33;;;;;17.61;55.25;99129.38;6140001;22;102428;-83
2021/09/02 05:09:12;;;;;;;;;6.33;5.67;;;;;17.60;54.90;99133.22;6144353;22;102332;-83
2021/09/02 05:11:39;;;;;;;;;7.00;6.33;;;;;17.60;54.74;99131.31;6135663;22;103971;-83
2021/09/02 05:14:06;;;;;;;;;6.00;6.00;;;;;17.60;54.78;99130.47;6138127;22;102490;-83
2021/09/02 05:16:33;;;;;;;;;6.00;6.00;;;;;17.58;54.78;99132.56;6139614;22;102540;-84
2021/09/02 05:19:01;;;;;;;;;5.33;5.00;;;;;17.57;55.09;99137.19;6118243;22;102702;-84
2021/09/02 05:21:28;;;;;;;;;5.67;5.33;;;;;17.56;54.96;99129.25;6137731;22;104117;-84
2021/09/02 05:23:55;;;;;;;;;7.00;7.00;;;;;17.56;55.46;99130.03;6116777;22;102385;-84
2021/09/02 05:26:22;;;;;;;;;7.00;6.00;;;;;17.58;55.72;99138.91;6140820;22;102690;-84
2021/09/02 05:28:49;;;;;;;;;6.67;5.33;;;;;17.59;54.97;99134.25;6140071;22;102077;-84
2021/09/02 05:31:17;;;;;;;;;7.00;6.67;;;;;17.57;55.34;99145.41;6137105;22;104495;-84
2021/09/02 05:33:44;;;;;;;;;7.00;7.00;;;;;17.58;55.68;99144.38;6136120;22;102183;-84
2021/09/02 05:36:11;;;;;;;;;7.33;6.67;;;;;17.58;55.38;99136.16;6137938;22;102616;-84
2021/09/02 05:38:38;;;;;;;;;6.67;6.00;;;;;17.58;54.69;99147.09;6139916;22;102330;-83
2021/09/02 05:41:05;;;;;;;;;7.33;5.67;;;;;17.59;55.60;99156.97;6131933;22;104007;-84
2021/09/02 05:43:33;;;;;;;;;7.00;7.00;;;;;17.57;55.28;99158.22;6140997;22;102355;-84
2021/09/02 05:46:00;;;;;;;;;7.00;7.00;;;;;17.58;55.70;99165.38;6132566;22;102173;-84
2021/09/02 05:48:27;;;;;;;;;6.00;5.00;;;;;17.57;55.57;99166.44;6142173;22;102750;-84
2021/09/02 05:50:54;;;;;;;;;5.67;5.00;;;;;17.56;55.83;99160.13;6139643;22;103770;-84
2021/09/02 05:53:22;;;;;;;;;5.00;5.00;;;;;17.58;55.61;99149.84;6136305;22;102148;-84
2021/09/02 05:55:50;;;;;;;;;3.00;3.00;;;;;17.56;55.84;99160.13;6127573;22;102230;-84
2021/09/02 05:58:18;;;;;;;;;5.00;5.00;;;;;17.59;56.08;99156.16;6112968;22;103302;-83
2021/09/02 06:00:45;;;;;;;;;5.67;5.00;;;;;17.61;55.31;99156.72;6135222;22;104095;-83
2021/09/02 06:03:12;;;;;;;;;6.67;6.00;;;;;17.59;55.46;99145.22;6143756;22;102403;-83
2021/09/02 06:05:40;;;;;;;;;5.00;5.00;;;;;17.62;55.80;99147.47;6136809;22;102195;-83
2021/09/02 06:08:07;;;;;;;;;9.00;6.33;;;;;17.63;55.91;99155.44;6141866;22;102455;-83
2021/09/02 06:10:34;;;;;;;;;8.00;6.67;;;;;17.62;55.75;99159.25;6139622;22;104085;-83
2021/09/02 06:13:01;;;;;;;;;6.33;6.00;;;;;17.60;55.86;99153.19;6138693;22;102159;-83
2021/09/02 06:15:29;;;;;;;;;6.00;6.00;;;;;17.61;56.33;99162.19;6138801;22;102378;-84
2021/09/02 06:17:56;;;;;;;;;8.00;7.00;;;;;17.60;56.49;99164.13;6139757;22;102091;-84
2021/09/02 06:20:25;;;;;;;;;5.33;5.33;;;;;17.62;56.25;99169.34;6114514;22;104563;-84
2021/09/02 06:22:53;;;;;;;;;5.67;5.67;;;;;17.60;56.44;99166.03;6134650;22;102186;-84
2021/09/02 06:25:20;;;;;;;;;6.33;6.00;;;;;17.59;56.95;99172.56;6140141;22;101960;-84
2021/09/02 06:27:47;;;;;;;;;6.00;6.00;;;;;17.61;56.49;99175.88;6145934;22;102324;-84
2021/09/02 06:30:14;;;;;;;;;8.67;7.00;;;;;17.61;55.93;99176.72;6137615;22;103716;-84
2021/09/02 06:32:41;;;;;;;;;1.00;0.00;;;;;17.64;56.22;99176.25;6129796;22;102630;-84
2021/09/02 06:35:09;;;;;;;;;7.00;5.00;;;;;17.66;56.03;99174.13;6138114;22;101943;-84
2021/09/02 06:37:36;;;;;;;;;5.00;5.00;;;;;17.68;56.15;99184.84;6117661;22;102139;-84
2021/09/02 06:40:03;;;;;;;;;7.33;7.00;;;;;17.68;56.36;99177.47;6136033;22;108844;-84
2021/09/02 06:42:31;;;;;;;;;3.67;3.00;;;;;17.69;56.44;99181.88;6145627;22;102073;-85
2021/09/02 06:44:58;;;;;;;;;6.00;6.00;;;;;17.69;57.04;99178.31;6144156;22;102091;-84
2021/09/02 06:47:26;;;;;;;;;6.67;6.00;;;;;17.69;56.95;99184.59;6144621;22;102247;-84
2021/09/02 06:49:53;;;;;;;;;5.00;4.00;;;;;17.71;57.26;99184.34;6139204;22;109323;-83
2021/09/02 06:52:20;;;;;;;;;6.00;5.33;;;;;17.70;56.32;99186.25;6128169;22;102123;-84
2021/09/02 06:54:47;;;;;;;;;5.00;5.00;;;;;17.72;57.19;99186.03;6106512;22;102361;-84
2021/09/02 06:57:14;;;;;;;;;6.00;5.00;;;;;17.71;56.43;99190.66;6121064;22;102522;-83
2021/09/02 06:59:41;;;;;;;;;3.00;3.00;;;;;17.73;57.21;99188.53;6141193;22;103962;-83
2021/09/02 07:02:08;;;;;;;;;4.67;4.00;;;;;17.76;56.85;99199.00;6140247;22;102427;-84
2021/09/02 07:04:37;;;;;;;;;5.00;4.33;;;;;17.80;56.55;99207.59;6146155;22;102147;-84
2021/09/02 07:07:04;;;;;;;;;5.33;5.00;;;;;17.79;56.46;99204.00;6136311;22;102096;-84
2021/09/02 07:09:31;;;;;;;;;6.00;5.00;;;;;17.82;56.63;99203.56;6145891;22;105782;-83
2021/09/02 07:11:58;;;;;;;;;6.00;4.67;;;;;17.84;57.16;99206.03;6117392;22;102448;-83
2021/09/02 07:14:25;;;;;;;;;5.00;5.00;;;;;17.87;56.86;99218.44;6118191;22;102515;-84
2021/09/02 07:16:53;;;;;;;;;5.67;4.33;;;;;17.86;56.42;99219.50;6146660;22;102278;-84
2021/09/02 07:19:21;;;;;;;;;2.67;2.00;;;;;17.88;56.60;99220.13;6137573;22;103989;-83
2021/09/02 07:21:48;;;;;;;;;5.00;5.00;;;;;17.88;57.21;99223.66;6143218;22;102168;-84
2021/09/02 07:24:16;;;;;;;;;6.33;5.00;;;;;17.89;57.46;99227.22;6137739;22;102509;-84
2021/09/02 07:26:43;;;;;;;;;5.33;5.00;;;;;17.88;57.06;99222.84;6142498;22;102147;-83
2021/09/02 07:29:10;;;;;;;;;4.00;4.00;;;;;17.90;56.99;99220.69;6145179;22;104034;-83
2021/09/02 07:31:39;;;;;;;;;4.00;4.00;;;;;17.92;56.68;99232.25;6147052;22;102296;-84
2021/09/02 07:34:06;;;;;;;;;5.00;4.67;;;;;17.92;57.46;99229.53;6116907;22;102499;-84
2021/09/02 07:36:33;;;;;;;;;7.00;5.67;;;;;17.92;57.48;99238.53;6134211;22;102595;-84
2021/09/02 07:39:09;;;;;;;;;5.33;5.00;;;;;17.94;56.81;99233.69;6146296;22;109789;-85
2021/09/02 07:41:36;;;;;;;;;4.67;4.00;;;;;17.96;56.75;99247.16;6142493;22;102449;-84
2021/09/02 07:44:03;;;;;;;;;5.67;5.00;;;;;17.96;56.87;99245.25;6137064;22;102270;-84
2021/09/02 07:46:31;;;;;;;;;5.33;4.67;;;;;17.96;56.36;99239.78;6143240;22;102551;-84
2021/09/02 07:48:59;;;;;;;;;6.00;6.00;;;;;17.98;57.05;99248.56;6127537;22;104198;-84
2021/09/02 07:51:27;;;;;;;;;4.00;3.00;;;;;17.97;56.82;99246.06;6139983;22;102308;-84
2021/09/02 07:53:54;;;;;;;;;4.33;4.33;;;;;18.00;57.16;99246.44;6141971;22;101992;-84
2021/09/02 08:21:20;;;;;;;;;5.00;4.00;;;;;18.08;57.73;99261.69;3485984;27;1619566;-85
2021/09/02 08:23:47;;;;;;;;;5.00;4.33;;;;;18.09;57.30;99255.16;4983852;27;105123;-82
2021/09/02 08:26:14;;;;;;;;;5.00;5.00;;;;;18.11;57.18;99255.75;4993451;27;102575;-85
2021/09/02 08:28:41;;;;;;;;;4.00;4.00;;;;;18.11;57.89;99264.78;4982757;27;104160;-84
2021/09/02 08:31:08;;;;;;;;;4.33;4.33;;;;;18.12;57.85;99265.63;4984351;27;104736;-86
2021/09/02 08:33:35;;;;;;;;;4.33;4.33;;;;;18.12;57.92;99277.41;4987109;27;102765;-85
2021/09/02 08:36:03;;;;;;;;;4.33;4.33;;;;;18.12;57.91;99255.50;4968194;27;103188;-85
2021/09/02 08:38:30;;;;;;;;;5.00;5.00;;;;;18.14;57.87;99263.50;4986646;27;103018;-85
2021/09/02 08:40:58;;;;;;;;;4.33;4.33;;;;;18.15;57.75;99259.69;4987028;27;104846;-85
2021/09/02 08:43:25;;;;;;;;;4.33;4.33;;;;;18.16;57.19;99261.34;4980663;27;102286;-85
2021/09/02 08:49:50;;;;;;;;;4.00;4.00;;;;;18.20;57.52;99259.81;4977679;27;104301;-84
2021/09/02 08:52:17;;;;;;;;;4.00;3.67;;;;;18.21;57.37;99258.75;4971980;28;104141;-84
2021/09/02 08:54:47;;;;;;;;;4.00;4.00;;;;;18.22;57.39;99249.47;4983842;27;103535;-85
2021/09/02 08:57:15;;;;;;;;;4.00;3.00;;;;;18.23;57.18;99257.47;4966525;28;102689;-85
2021/09/02 08:59:42;;;;;;;;;5.67;5.67;;;;;18.24;57.71;99263.75;4992520;27;102988;-85
2021/09/02 09:02:29;;;;;;;;;5.33;5.00;;;;;18.24;57.82;99264.59;4978352;27;104548;-85
2021/09/02 09:05:07;;;;;;;;;5.00;4.00;;;;;18.25;57.22;99259.94;4983128;27;103155;-85
2021/09/02 09:07:39;;;;;;;;;5.67;5.00;;;;;18.27;57.90;99255.09;4992995;27;103518;-85
2021/09/02 09:10:11;;;;;;;;;5.00;4.33;;;;;18.29;57.19;99266.63;4969988;27;102842;-85
2021/09/02 09:12:40;;;;;;;;;3.00;3.00;;;;;18.27;57.31;99269.63;4965329;27;104126;-85
2021/09/02 09:15:09;;;;;;;;;3.33;3.33;;;;;18.29;57.10;99258.41;4959307;28;110209;-85
2021/09/02 09:17:36;;;;;;;;;3.00;3.00;;;;;18.29;56.85;99261.97;4959183;28;102608;-85
2021/09/02 09:20:05;;;;;;;;;5.00;4.67;;;;;18.32;57.71;99254.38;4951351;28;102472;-85
2021/09/02 09:22:33;;;;;;;;;3.67;3.67;;;;;18.33;57.06;99265.06;4972190;28;105145;-85
2021/09/02 09:25:01;;;;;;;;;3.67;3.00;;;;;18.34;57.11;99260.44;4971108;28;102852;-85
2021/09/02 09:27:32;;;;;;;;;4.00;4.00;;;;;18.35;57.00;99260.22;4997315;27;103227;-84
2021/09/02 09:30:12;;;;;;;;;3.00;3.00;;;;;18.36;57.16;99261.88;4995363;27;104400;-85
2021/09/02 09:32:51;;;;;;;;;5.67;4.67;;;;;18.36;57.07;99248.19;4986007;27;104758;-85
2021/09/02 09:35:22;;;;;;;;;3.00;3.00;;;;;18.37;56.76;99257.25;4987539;27;102669;-84
2021/09/02 09:37:51;;;;;;;;;3.00;3.00;;;;;18.37;56.98;99258.06;4991608;27;104109;-84
2021/09/02 09:40:20;;;;;;;;;3.33;3.33;;;;;18.37;56.92;99257.25;4985941;27;102997;-84
2021/09/02 09:43:04;;;;;;;;;5.67;4.00;;;;;18.38;57.36;99258.91;4982805;27;104029;-83
2021/09/02 09:45:44;;;;;;;;;5.00;4.33;;;;;18.40;57.48;99263.09;4980681;27;102496;-84
2021/09/02 09:48:24;;;;;;;;;5.00;5.00;;;;;18.42;56.89;99260.09;4978446;28;102667;-84
2021/09/02 09:51:14;;;;;;;;;3.00;3.00;;;;;18.43;57.04;99257.13;4987700;27;102643;-84
2021/09/02 09:53:52;;;;;;;;;3.33;3.00;;;;;18.44;56.97;99261.53;4994141;27;103872;-84
2021/09/02 09:56:22;;;;;;;;;4.00;4.00;;;;;18.45;56.74;99256.91;4987920;27;102338;-84
2021/09/02 09:58:52;;;;;;;;;4.00;4.00;;;;;18.45;57.06;99257.75;4983796;27;102503;-84
2021/09/02 10:01:19;;;;;;;;;4.33;4.00;;;;;18.46;57.00;99259.38;4982028;27;102548;-83
2021/09/02 10:03:51;;;;;;;;;4.33;4.00;;;;;18.46;56.88;99264.84;4997212;27;104419;-85
2021/09/02 10:06:19;;;;;;;;;4.00;3.00;;;;;18.47;56.77;99261.06;4961931;28;102457;-83
2021/09/02 10:08:46;;;;;;;;;3.67;3.67;;;;;18.48;57.51;99262.72;4984254;28;102552;-84
2021/09/02 10:11:14;;;;;;;;;3.00;3.00;;;;;18.49;57.28;99264.41;4994857;27;104601;-84
2021/09/02 10:13:42;;;;;;;;;3.00;3.00;;;;;18.49;57.21;99261.69;4977903;27;104099;-84
2021/09/02 10:16:09;;;;;;;;;3.67;3.00;;;;;18.51;57.47;99262.25;4983942;27;102212;-84
2021/09/02 10:18:45;;;;;;;;;4.00;3.67;;;;;18.52;57.14;99263.09;4984383;27;102461;-84
2021/09/02 10:21:14;;;;;;;;;3.00;3.00;;;;;18.54;56.70;99263.72;4966558;28;102459;-84
2021/09/02 10:23:42;;;;;;;;;3.00;3.00;;;;;18.53;57.17;99257.41;4988543;27;104332;-84
2021/09/02 10:26:29;;;;;;;;;3.33;3.00;;;;;18.55;56.87;99266.22;4986549;27;102485;-84
2021/09/02 10:28:56;;;;;;;;;4.00;3.33;;;;;18.56;57.21;99262.41;4988875;27;103104;-84
2021/09/02 10:31:24;;;;;;;;;4.00;3.00;;;;;18.58;57.15;99265.75;4966653;28;102971;-84
2021/09/02 10:33:51;;;;;;;;;3.67;3.67;;;;;18.60;57.01;99268.25;4964277;28;104298;-84
2021/09/02 10:36:19;;;;;;;;;3.00;3.00;;;;;18.61;57.03;99265.28;4976480;27;102493;-82
2021/09/02 10:38:50;;;;;;;;;3.00;3.00;;;;;18.62;56.97;99266.13;4995428;27;102512;-84
2021/09/02 10:41:37;;;;;;;;;4.00;4.00;;;;;18.62;57.00;99261.47;4983913;27;103045;-84
2021/09/02 10:44:05;;;;;;;;;4.33;4.00;;;;;18.64;56.37;99267.53;4985724;27;104474;-84
2021/09/02 10:46:36;;;;;;;;;3.00;3.00;;;;;18.64;56.75;99275.75;4987836;27;102546;-84
2021/09/02 10:49:31;;;;;;;;;4.00;3.67;;;;;18.66;56.59;99283.75;4994498;27;103123;-84
2021/09/02 10:52:04;;;;;;;;;3.00;3.00;;;;;18.66;56.37;99276.38;4982220;27;103167;-84
2021/09/02 10:54:38;;;;;;;;;3.67;3.67;;;;;18.69;57.04;99280.53;4980104;27;104336;-84
2021/09/02 10:57:08;;;;;;;;;3.33;3.00;;;;;18.69;56.57;99278.63;4983938;27;102758;-84
2021/09/02 10:59:44;;;;;;;;;4.00;3.67;;;;;18.70;56.74;99266.59;4976246;27;102508;-84
2021/09/02 11:02:17;;;;;;;;;2.67;2.67;;;;;18.71;56.71;99267.44;4989128;27;102672;-85
2021/09/02 11:04:45;;;;;;;;;3.00;3.00;;;;;18.73;56.56;99264.47;4993924;27;109101;-84
2021/09/02 11:07:12;;;;;;;;;3.00;3.00;;;;;18.75;56.84;99273.28;4984341;27;102732;-84
2021/09/02 11:09:42;;;;;;;;;5.00;5.00;;;;;18.76;56.73;99272.22;4973726;28;102543;-84
2021/09/02 11:12:13;;;;;;;;;4.00;4.00;;;;;18.77;56.93;99262.94;4991196;27;104033;-84
2021/09/02 11:14:46;;;;;;;;;3.00;3.00;;;;;18.76;56.70;99270.31;4979718;28;104310;-84
2021/09/02 11:17:14;;;;;;;;;4.00;3.67;;;;;18.79;56.74;99269.81;4959231;28;103093;-84
2021/09/02 11:19:42;;;;;;;;;3.33;3.33;;;;;18.79;57.04;99271.72;4991904;27;102499;-84
2021/09/02 11:22:16;;;;;;;;;2.67;2.33;;;;;18.82;56.65;99277.59;4966645;28;104875;-84
2021/09/02 11:24:45;;;;;;;;;3.00;3.00;;;;;18.84;56.89;99280.06;4971980;27;106445;-84
2021/09/02 11:27:33;;;;;;;;;3.33;3.00;;;;;18.84;56.80;99269.09;4980527;27;102856;-84
2021/09/02 11:30:20;;;;;;;;;3.00;3.00;;;;;18.86;56.65;99291.63;4986107;27;102608;-84
2021/09/02 11:33:08;;;;;;;;;4.00;4.00;;;;;18.87;56.80;99276.84;4973209;28;102801;-84
2021/09/02 11:35:35;;;;;;;;;3.00;3.00;;;;;18.88;56.60;99281.25;4971660;28;109007;-84
2021/09/02 11:38:03;;;;;;;;;5.00;4.00;;;;;18.89;56.95;99277.44;4988510;27;102421;-84
2021/09/02 11:40:35;;;;;;;;;3.33;3.00;;;;;18.89;56.80;99278.28;4981305;27;102406;-84
2021/09/02 11:43:03;;;;;;;;;3.00;3.00;;;;;18.90;57.10;99276.38;4974431;27;102893;-84
2021/09/02 11:45:32;;;;;;;;;2.00;2.00;;;;;18.91;56.76;99280.81;4980357;27;104249;-84
2021/09/02 11:48:08;;;;;;;;;4.50;3.00;;;;;18.92;56.90;99282.44;4967711;27;104252;-84
2021/09/02 11:50:35;;;;;;;;;1.33;1.33;;;;;18.93;56.81;99278.63;4976756;27;103169;-85
2021/09/02 11:53:02;;;;;;;;;3.00;3.00;;;;;18.93;56.74;99284.97;4982332;27;102514;-84
2021/09/02 11:55:31;;;;;;;;;3.33;3.33;;;;;18.94;56.79;99269.34;4980884;27;104215;-84
2021/09/02 11:58:00;;;;;;;;;2.00;2.00;;;;;18.97;56.98;99274.34;4981431;27;102507;-84
2021/09/02 12:00:28;;;;;;;;;4.33;3.00;;;;;18.97;56.70;99269.69;4988604;27;102449;-84